sensor_id;sensor_type;location;lat;lon;timestamp;pressure;altitude;pressure_sealevel;temperature;humidity
48968;BME280;46511;53.148;8.204;2023-02-28T00:00:48;103145.03;;;6.64;100.00
48968;BME280;46511;53.148;8.204;2023-02-28T00:03:19;103139.72;;;6.73;100.00
48968;BME280;46511;53.148;8.204;2023-02-28T00:05:51;103153.81;;;6.63;100.00
48968;BME280;46511;53.148;8.204;2023-02-28T00:08:22;103139.75;;;6.64;100.00
48968;BME280;46511;53.148;8.204;2023-02-28T00:10:53;103142.38;;;6.64;100.00
48968;BME280;46511;53.148;8.204;2023-02-28T00:13:25;103151.19;;;6.56;100.00
48968;BME280;46511;53.148;8.204;2023-02-28T00:16:00;103139.72;;;6.61;100.00
48968;BME280;46511;53.148;8.204;2023-02-28T00:18:32;103141.50;;;6.65;100.00
48968;BME280;46511;53.148;8.204;2023-02-28T00:21:04;103141.47;;;6.62;100.00
48968;BME280;46511;53.148;8.204;2023-02-28T00:23:36;103139.75;;;6.54;100.00
48968;BME280;46511;53.148;8.204;2023-02-28T00:26:08;103144.16;;;6.52;100.00
48968;BME280;46511;53.148;8.204;2023-02-28T00:28:39;103142.41;;;6.54;100.00
48968;BME280;46511;53.148;8.204;2023-02-28T00:31:10;103141.53;;;6.49;100.00
48968;BME280;46511;53.148;8.204;2023-02-28T00:33:42;103151.22;;;6.47;100.00
48968;BME280;46511;53.148;8.204;2023-02-28T00:36:13;103154.72;;;6.51;100.00
48968;BME280;46511;53.148;8.204;2023-02-28T00:38:45;103154.72;;;6.48;100.00
48968;BME280;46511;53.148;8.204;2023-02-28T00:41:16;103152.09;;;6.46;100.00
48968;BME280;46511;53.148;8.204;2023-02-28T00:43:48;103139.75;;;6.51;100.00
48968;BME280;46511;53.148;8.204;2023-02-28T00:46:19;103145.03;;;6.54;100.00
48968;BME280;46511;53.148;8.204;2023-02-28T00:48:50;103157.38;;;6.48;100.00
48968;BME280;46511;53.148;8.204;2023-02-28T00:51:21;103156.47;;;6.44;100.00
48968;BME280;46511;53.148;8.204;2023-02-28T00:53:53;103154.75;;;6.46;100.00
48968;BME280;46511;53.148;8.204;2023-02-28T00:56:24;103153.84;;;6.40;100.00
48968;BME280;46511;53.148;8.204;2023-02-28T00:58:56;103160.03;;;6.29;100.00
48968;BME280;46511;53.148;8.204;2023-02-28T01:01:27;103166.19;;;6.36;100.00
48968;BME280;46511;53.148;8.204;2023-02-28T01:03:58;103166.19;;;6.33;100.00
48968;BME280;46511;53.148;8.204;2023-02-28T01:06:30;103171.47;;;6.36;100.00
48968;BME280;46511;53.148;8.204;2023-02-28T01:09:02;103176.75;;;6.39;100.00
48968;BME280;46511;53.148;8.204;2023-02-28T01:11:35;103164.44;;;6.38;100.00
48968;BME280;46511;53.148;8.204;2023-02-28T01:14:06;103162.66;;;6.49;100.00
48968;BME280;46511;53.148;8.204;2023-02-28T01:16:38;103156.47;;;6.52;100.00
48968;BME280;46511;53.148;8.204;2023-02-28T01:19:09;103154.72;;;6.54;100.00
48968;BME280;46511;53.148;8.204;2023-02-28T01:21:40;103158.25;;;6.54;100.00
48968;BME280;46511;53.148;8.204;2023-02-28T01:24:12;103160.88;;;6.57;100.00
48968;BME280;46511;53.148;8.204;2023-02-28T01:26:38;103152.97;;;6.56;100.00
48968;BME280;46511;53.148;8.204;2023-02-28T01:29:09;103158.25;;;6.44;100.00
48968;BME280;46511;53.148;8.204;2023-02-28T01:31:40;103159.13;;;6.44;100.00
48968;BME280;46511;53.148;8.204;2023-02-28T01:34:07;103162.66;;;6.43;100.00
48968;BME280;46511;53.148;8.204;2023-02-28T01:36:38;103160.88;;;6.51;100.00
48968;BME280;46511;53.148;8.204;2023-02-28T01:39:09;103158.25;;;6.47;100.00
48968;BME280;46511;53.148;8.204;2023-02-28T01:41:40;103160.88;;;6.51;100.00
48968;BME280;46511;53.148;8.204;2023-02-28T01:47:21;103154.72;;;6.48;100.00
48968;BME280;46511;53.148;8.204;2023-02-28T01:49:56;103144.16;;;6.48;100.00
48968;BME280;46511;53.148;8.204;2023-02-28T01:52:29;103149.47;;;6.45;100.00
48968;BME280;46511;53.148;8.204;2023-02-28T01:55:02;103146.81;;;6.46;100.00
48968;BME280;46511;53.148;8.204;2023-02-28T01:57:44;103150.31;;;6.51;100.00
48968;BME280;46511;53.148;8.204;2023-02-28T02:00:20;103144.19;;;6.46;100.00
48968;BME280;46511;53.148;8.204;2023-02-28T02:02:55;103144.16;;;6.52;100.00
48968;BME280;46511;53.148;8.204;2023-02-28T02:05:30;103143.28;;;6.44;100.00
48968;BME280;46511;53.148;8.204;2023-02-28T02:08:06;103138.94;;;6.17;100.00
48968;BME280;46511;53.148;8.204;2023-02-28T02:10:44;103145.97;;;6.21;100.00
48968;BME280;46511;53.148;8.204;2023-02-28T02:13:37;103146.81;;;6.43;100.00
48968;BME280;46511;53.148;8.204;2023-02-28T02:42:31;103125.72;;;6.31;100.00
48968;BME280;46511;53.148;8.204;2023-02-28T02:45:11;103130.13;;;6.18;100.00
48968;BME280;46511;53.148;8.204;2023-02-28T02:47:48;103138.91;;;6.23;100.00
48968;BME280;46511;53.148;8.204;2023-02-28T02:50:23;103141.53;;;6.25;100.00
48968;BME280;46511;53.148;8.204;2023-02-28T02:53:00;103138.06;;;6.20;100.00
48968;BME280;46511;53.148;8.204;2023-02-28T02:55:34;103140.69;;;6.12;100.00
48968;BME280;46511;53.148;8.204;2023-02-28T02:58:12;103145.09;;;6.18;100.00
48968;BME280;46511;53.148;8.204;2023-02-28T03:00:48;103135.41;;;6.06;100.00
48968;BME280;46511;53.148;8.204;2023-02-28T03:03:24;103139.81;;;6.12;100.00
48968;BME280;46511;53.148;8.204;2023-02-28T03:06:00;103133.66;;;5.94;100.00
48968;BME280;46511;53.148;8.204;2023-02-28T03:08:36;103131.88;;;5.96;100.00
48968;BME280;46511;53.148;8.204;2023-02-28T03:11:12;103132.78;;;6.08;100.00
48968;BME280;46511;53.148;8.204;2023-02-28T03:14:00;103129.25;;;6.03;100.00
48968;BME280;46511;53.148;8.204;2023-02-28T03:16:49;103131.00;;;6.13;100.00
48968;BME280;46511;53.148;8.204;2023-02-28T03:28:40;103138.94;;;6.26;100.00
48968;BME280;46511;53.148;8.204;2023-02-28T03:31:36;103133.66;;;6.26;100.00
48968;BME280;46511;53.148;8.204;2023-02-28T03:34:12;103141.53;;;6.25;100.00
48968;BME280;46511;53.148;8.204;2023-02-28T03:36:53;103145.97;;;6.27;100.00
48968;BME280;46511;53.148;8.204;2023-02-28T03:39:40;103136.28;;;6.04;100.00
48968;BME280;46511;53.148;8.204;2023-02-28T03:42:20;103136.28;;;6.14;100.00
48968;BME280;46511;53.148;8.204;2023-02-28T03:44:56;103143.34;;;6.17;100.00
48968;BME280;46511;53.148;8.204;2023-02-28T03:47:32;103137.16;;;6.06;100.00
48968;BME280;46511;53.148;8.204;2023-02-28T03:50:19;103145.97;;;5.98;100.00
48968;BME280;46511;53.148;8.204;2023-02-28T03:53:01;103150.34;;;5.96;100.00
48968;BME280;46511;53.148;8.204;2023-02-28T03:55:41;103142.41;;;5.87;100.00
48968;BME280;46511;53.148;8.204;2023-02-28T04:01:30;103149.44;;;5.81;100.00
48968;BME280;46511;53.148;8.204;2023-02-28T04:04:09;103156.47;;;5.86;100.00
48968;BME280;46511;53.148;8.204;2023-02-28T04:06:42;103151.22;;;5.80;100.00
48968;BME280;46511;53.148;8.204;2023-02-28T04:09:14;103152.09;;;5.70;100.00
48968;BME280;46511;53.148;8.204;2023-02-28T04:11:50;103152.06;;;5.73;100.00
48968;BME280;46511;53.148;8.204;2023-02-28T04:14:26;103145.03;;;5.77;100.00
48968;BME280;46511;53.148;8.204;2023-02-28T04:16:57;103150.31;;;5.66;100.00
48968;BME280;46511;53.148;8.204;2023-02-28T04:19:28;103154.72;;;5.81;100.00
48968;BME280;46511;53.148;8.204;2023-02-28T04:22:00;103163.50;;;5.83;100.00
48968;BME280;46511;53.148;8.204;2023-02-28T04:24:31;103163.53;;;5.81;100.00
48968;BME280;46511;53.148;8.204;2023-02-28T04:27:02;103159.13;;;5.83;100.00
48968;BME280;46511;53.148;8.204;2023-02-28T04:29:34;103163.53;;;5.80;100.00
48968;BME280;46511;53.148;8.204;2023-02-28T04:32:05;103152.06;;;5.67;100.00
48968;BME280;46511;53.148;8.204;2023-02-28T04:34:36;103159.09;;;5.68;100.00
48968;BME280;46511;53.148;8.204;2023-02-28T04:37:08;103163.50;;;5.61;100.00
48968;BME280;46511;53.148;8.204;2023-02-28T04:39:39;103161.69;;;5.42;100.00
48968;BME280;46511;53.148;8.204;2023-02-28T04:42:11;103166.91;;;5.24;100.00
48968;BME280;46511;53.148;8.204;2023-02-28T04:44:44;103161.69;;;5.40;100.00
48968;BME280;46511;53.148;8.204;2023-02-28T04:47:15;103155.50;;;5.38;100.00
48968;BME280;46511;53.148;8.204;2023-02-28T04:49:46;103156.41;;;5.42;100.00
48968;BME280;46511;53.148;8.204;2023-02-28T04:52:18;103155.50;;;5.40;100.00
48968;BME280;46511;53.148;8.204;2023-02-28T04:54:49;103156.41;;;5.40;100.00
48968;BME280;46511;53.148;8.204;2023-02-28T04:57:20;103145.84;;;5.39;100.00
48968;BME280;46511;53.148;8.204;2023-02-28T04:59:52;103158.16;;;5.35;100.00
48968;BME280;46511;53.148;8.204;2023-02-28T05:02:23;103156.34;;;5.24;100.00
48968;BME280;46511;53.148;8.204;2023-02-28T05:04:54;103157.25;;;5.30;100.00
48968;BME280;46511;53.148;8.204;2023-02-28T05:07:25;103158.13;;;5.22;100.00
48968;BME280;46511;53.148;8.204;2023-02-28T05:09:57;103155.44;;;5.14;100.00
48968;BME280;46511;53.148;8.204;2023-02-28T05:12:28;103155.41;;;5.08;100.00
48968;BME280;46511;53.148;8.204;2023-02-28T05:15:00;103161.50;;;4.93;100.00
48968;BME280;46511;53.148;8.204;2023-02-28T05:17:32;103158.88;;;5.01;100.00
48968;BME280;46511;53.148;8.204;2023-02-28T05:20:04;103167.66;;;4.97;100.00
48968;BME280;46511;53.148;8.204;2023-02-28T05:22:36;103158.88;;;4.95;100.00
48968;BME280;46511;53.148;8.204;2023-02-28T05:25:10;103163.22;;;4.85;100.00
48968;BME280;46511;53.148;8.204;2023-02-28T05:27:45;103163.22;;;4.91;100.00
48968;BME280;46511;53.148;8.204;2023-02-28T05:30:17;103162.41;;;4.94;100.00
48968;BME280;46511;53.148;8.204;2023-02-28T05:32:49;103166.78;;;4.93;100.00
48968;BME280;46511;53.148;8.204;2023-02-28T05:35:17;103160.50;;;4.71;100.00
48968;BME280;46511;53.148;8.204;2023-02-28T05:37:49;103165.75;;;4.68;100.00
48968;BME280;46511;53.148;8.204;2023-02-28T05:40:20;103165.75;;;4.71;100.00
48968;BME280;46511;53.148;8.204;2023-02-28T05:42:46;103172.72;;;4.62;100.00
48968;BME280;46511;53.148;8.204;2023-02-28T05:45:18;103170.91;;;4.50;100.00
48968;BME280;46511;53.148;8.204;2023-02-28T05:47:53;103169.22;;;4.58;100.00
48968;BME280;46511;53.148;8.204;2023-02-28T05:50:25;103176.91;;;4.30;100.00
48968;BME280;46511;53.148;8.204;2023-02-28T05:52:56;103181.31;;;4.32;100.00
48968;BME280;46511;53.148;8.204;2023-02-28T05:55:28;103183.03;;;4.26;100.00
48968;BME280;46511;53.148;8.204;2023-02-28T05:57:59;103183.00;;;4.25;100.00
48968;BME280;46511;53.148;8.204;2023-02-28T06:00:30;103176.16;;;4.50;100.00
48968;BME280;46511;53.148;8.204;2023-02-28T06:03:02;103177.94;;;4.52;100.00
48968;BME280;46511;53.148;8.204;2023-02-28T06:05:33;103178.91;;;4.65;100.00
48968;BME280;46511;53.148;8.204;2023-02-28T06:08:04;103183.31;;;4.66;100.00
48968;BME280;46511;53.148;8.204;2023-02-28T06:10:38;103176.34;;;4.74;100.00
48968;BME280;46511;53.148;8.204;2023-02-28T06:13:09;103172.81;;;4.75;100.00
48968;BME280;46511;53.148;8.204;2023-02-28T06:15:40;103178.09;;;4.75;100.00
48968;BME280;46511;53.148;8.204;2023-02-28T06:18:12;103177.22;;;4.82;100.00
48968;BME280;46511;53.148;8.204;2023-02-28T06:20:43;103178.97;;;4.77;100.00
48968;BME280;46511;53.148;8.204;2023-02-28T06:23:15;103191.25;;;4.74;100.00
48968;BME280;46511;53.148;8.204;2023-02-28T06:25:46;103207.84;;;4.62;100.00
48968;BME280;46511;53.148;8.204;2023-02-28T06:28:18;103200.94;;;4.79;100.00
48968;BME280;46511;53.148;8.204;2023-02-28T06:30:50;103197.47;;;4.85;100.00
48968;BME280;46511;53.148;8.204;2023-02-28T06:33:21;103195.66;;;4.76;100.00
48968;BME280;46511;53.148;8.204;2023-02-28T06:35:52;103203.56;;;4.79;100.00
48968;BME280;46511;53.148;8.204;2023-02-28T06:38:24;103201.81;;;4.83;100.00
48968;BME280;46511;53.148;8.204;2023-02-28T06:40:56;103210.69;;;4.94;100.00
48968;BME280;46511;53.148;8.204;2023-02-28T06:43:29;103203.59;;;4.85;100.00
48968;BME280;46511;53.148;8.204;2023-02-28T06:46:02;103210.66;;;4.93;100.00
48968;BME280;46511;53.148;8.204;2023-02-28T06:48:35;103213.34;;;5.02;100.00
48968;BME280;46511;53.148;8.204;2023-02-28T06:51:10;103214.25;;;5.11;100.00
48968;BME280;46511;53.148;8.204;2023-02-28T06:53:44;103216.94;;;5.16;100.00
48968;BME280;46511;53.148;8.204;2023-02-28T06:56:16;103222.25;;;5.25;100.00
48968;BME280;46511;53.148;8.204;2023-02-28T06:58:49;103218.72;;;5.23;100.00
48968;BME280;46511;53.148;8.204;2023-02-28T07:01:21;103223.88;;;5.02;100.00
48968;BME280;46511;53.148;8.204;2023-02-28T07:03:54;103230.94;;;5.06;100.00
48968;BME280;46511;53.148;8.204;2023-02-28T07:06:26;103223.13;;;5.27;100.00
48968;BME280;46511;53.148;8.204;2023-02-28T07:08:58;103223.91;;;5.05;100.00
48968;BME280;46511;53.148;8.204;2023-02-28T07:11:30;103230.97;;;5.15;100.00
48968;BME280;46511;53.148;8.204;2023-02-28T07:14:01;103237.19;;;5.28;100.00
48968;BME280;46511;53.148;8.204;2023-02-28T07:16:33;103238.97;;;5.32;100.00
48968;BME280;46511;53.148;8.204;2023-02-28T07:19:04;103238.94;;;5.21;100.00
48968;BME280;46511;53.148;8.204;2023-02-28T07:21:35;103244.00;;;4.89;100.00
48968;BME280;46511;53.148;8.204;2023-02-28T07:24:07;103241.69;;;5.55;100.00
48968;BME280;46511;53.148;8.204;2023-02-28T07:26:38;103243.59;;;6.78;100.00
48968;BME280;46511;53.148;8.204;2023-02-28T07:29:09;103239.25;;;12.21;78.90
48968;BME280;46511;53.148;8.204;2023-02-28T07:31:40;103233.34;;;13.71;55.67
48968;BME280;46511;53.148;8.204;2023-02-28T07:34:12;103237.50;;;15.61;47.28
48968;BME280;46511;53.148;8.204;2023-02-28T07:36:44;103239.81;;;16.36;42.38
48968;BME280;46511;53.148;8.204;2023-02-28T07:39:15;103237.06;;;17.39;37.93
48968;BME280;46511;53.148;8.204;2023-02-28T07:41:47;103225.59;;;18.45;35.59
48968;BME280;46511;53.148;8.204;2023-02-28T07:44:18;103229.31;;;18.25;34.83
48968;BME280;46511;53.148;8.204;2023-02-28T07:46:50;103231.75;;;17.19;34.81
48968;BME280;46511;53.148;8.204;2023-02-28T07:49:21;103234.28;;;20.46;31.88
48968;BME280;46511;53.148;8.204;2023-02-28T07:51:52;103230.50;;;21.92;29.38
48968;BME280;46511;53.148;8.204;2023-02-28T07:54:23;103229.59;;;20.34;29.22
48968;BME280;46511;53.148;8.204;2023-02-28T07:56:55;103217.31;;;20.44;30.38
48968;BME280;46511;53.148;8.204;2023-02-28T07:59:26;103227.47;;;21.97;28.50
48968;BME280;46511;53.148;8.204;2023-02-28T08:01:57;103223.88;;;21.96;26.61
48968;BME280;46511;53.148;8.204;2023-02-28T08:04:31;103220.34;;;20.98;28.84
48968;BME280;46511;53.148;8.204;2023-02-28T08:07:03;103224.63;;;20.72;27.91
48968;BME280;46511;53.148;8.204;2023-02-28T08:09:34;103227.00;;;18.18;30.44
48968;BME280;46511;53.148;8.204;2023-02-28T08:12:06;103227.13;;;17.02;32.94
48968;BME280;46511;53.148;8.204;2023-02-28T08:14:38;103234.91;;;20.51;28.21
48968;BME280;46511;53.148;8.204;2023-02-28T08:17:10;103223.34;;;20.33;27.63
48968;BME280;46511;53.148;8.204;2023-02-28T08:19:44;103227.06;;;20.01;28.72
48968;BME280;46511;53.148;8.204;2023-02-28T08:22:16;103235.09;;;18.52;30.76
48968;BME280;46511;53.148;8.204;2023-02-28T08:24:48;103225.22;;;19.05;30.38
48968;BME280;46511;53.148;8.204;2023-02-28T08:27:20;103236.19;;;18.67;31.17
48968;BME280;46511;53.148;8.204;2023-02-28T08:29:51;103234.50;;;20.43;29.01
48968;BME280;46511;53.148;8.204;2023-02-28T08:32:22;103232.06;;;20.68;27.99
48968;BME280;46511;53.148;8.204;2023-02-28T08:34:53;103232.81;;;22.65;26.52
48968;BME280;46511;53.148;8.204;2023-02-28T08:37:25;103233.44;;;23.71;24.37
48968;BME280;46511;53.148;8.204;2023-02-28T08:39:56;103228.06;;;19.35;29.29
48968;BME280;46511;53.148;8.204;2023-02-28T08:42:27;103226.72;;;23.38;25.83
48968;BME280;46511;53.148;8.204;2023-02-28T08:44:59;103230.09;;;23.29;23.93
48968;BME280;46511;53.148;8.204;2023-02-28T08:47:30;103231.31;;;24.35;23.22
48968;BME280;46511;53.148;8.204;2023-02-28T08:50:01;103234.19;;;23.47;23.30
48968;BME280;46511;53.148;8.204;2023-02-28T08:52:33;103238.56;;;23.62;24.05
48968;BME280;46511;53.148;8.204;2023-02-28T08:55:04;103227.91;;;21.35;25.52
48968;BME280;46511;53.148;8.204;2023-02-28T08:57:36;103235.00;;;23.24;24.47
48968;BME280;46511;53.148;8.204;2023-02-28T09:00:07;103229.66;;;25.25;22.00
48968;BME280;46511;53.148;8.204;2023-02-28T09:02:39;103238.00;;;24.42;22.18
48968;BME280;46511;53.148;8.204;2023-02-28T09:05:11;103234.09;;;26.14;20.95
48968;BME280;46511;53.148;8.204;2023-02-28T09:07:42;103231.66;;;27.36;19.78
48968;BME280;46511;53.148;8.204;2023-02-28T09:10:13;103235.38;;;25.22;20.42
48968;BME280;46511;53.148;8.204;2023-02-28T09:12:45;103231.97;;;23.16;22.37
48968;BME280;46511;53.148;8.204;2023-02-28T09:15:17;103232.09;;;21.68;23.38
48968;BME280;46511;53.148;8.204;2023-02-28T09:17:49;103239.53;;;21.64;24.59
48968;BME280;46511;53.148;8.204;2023-02-28T09:20:20;103236.84;;;23.23;22.19
48968;BME280;46511;53.148;8.204;2023-02-28T09:22:51;103234.50;;;22.93;21.98
48968;BME280;46511;53.148;8.204;2023-02-28T09:25:22;103233.41;;;24.07;20.80
48968;BME280;46511;53.148;8.204;2023-02-28T09:27:54;103235.91;;;23.74;20.96
48968;BME280;46511;53.148;8.204;2023-02-28T09:30:25;103238.47;;;23.26;20.85
48968;BME280;46511;53.148;8.204;2023-02-28T09:32:56;103227.69;;;25.27;19.63
48968;BME280;46511;53.148;8.204;2023-02-28T09:35:28;103241.38;;;23.61;21.21
48968;BME280;46511;53.148;8.204;2023-02-28T09:38:01;103232.88;;;25.52;19.16
48968;BME280;46511;53.148;8.204;2023-02-28T09:40:35;103232.50;;;23.33;21.50
48968;BME280;46511;53.148;8.204;2023-02-28T09:43:09;103225.56;;;25.53;19.85
48968;BME280;46511;53.148;8.204;2023-02-28T09:45:49;103231.03;;;25.19;19.86
48968;BME280;46511;53.148;8.204;2023-02-28T09:48:31;103219.72;;;25.01;19.36
48968;BME280;46511;53.148;8.204;2023-02-28T09:53:58;103240.47;;;22.59;22.70
48968;BME280;46511;53.148;8.204;2023-02-28T09:56:38;103237.94;;;23.08;22.38
48968;BME280;46511;53.148;8.204;2023-02-28T09:59:16;103239.09;;;23.29;22.25
48968;BME280;46511;53.148;8.204;2023-02-28T10:02:00;103244.28;;;24.77;19.96
48968;BME280;46511;53.148;8.204;2023-02-28T10:10:17;103238.06;;;22.94;21.39
48968;BME280;46511;53.148;8.204;2023-02-28T10:12:53;103235.91;;;27.59;17.90
48968;BME280;46511;53.148;8.204;2023-02-28T10:15:27;103236.97;;;30.31;15.68
48968;BME280;46511;53.148;8.204;2023-02-28T10:18:03;103240.47;;;27.19;17.23
48968;BME280;46511;53.148;8.204;2023-02-28T10:20:38;103247.50;;;23.76;20.09
48968;BME280;46511;53.148;8.204;2023-02-28T10:23:23;103257.53;;;18.17;25.23
48968;BME280;46511;53.148;8.204;2023-02-28T10:26:05;103259.22;;;16.84;27.22
48968;BME280;46511;53.148;8.204;2023-02-28T10:28:42;103259.28;;;14.78;31.06
48968;BME280;46511;53.148;8.204;2023-02-28T10:31:15;103253.31;;;14.95;31.12
48968;BME280;46511;53.148;8.204;2023-02-28T10:33:49;103258.06;;;15.60;30.21
48968;BME280;46511;53.148;8.204;2023-02-28T10:36:20;103248.72;;;19.99;25.71
48968;BME280;46511;53.148;8.204;2023-02-28T10:38:52;103243.22;;;22.32;22.41
48968;BME280;46511;53.148;8.204;2023-02-28T10:46:54;103239.06;;;21.72;23.70
48968;BME280;46511;53.148;8.204;2023-02-28T10:49:27;103238.59;;;24.69;20.61
48968;BME280;46511;53.148;8.204;2023-02-28T10:52:00;103240.75;;;23.32;21.45
48968;BME280;46511;53.148;8.204;2023-02-28T10:54:33;103238.81;;;24.55;20.53
48968;BME280;46511;53.148;8.204;2023-02-28T10:57:19;103229.41;;;21.54;23.73
48968;BME280;46511;53.148;8.204;2023-02-28T10:59:53;103242.81;;;20.54;24.26
48968;BME280;46511;53.148;8.204;2023-02-28T11:02:44;103221.22;;;22.76;21.91
48968;BME280;46511;53.148;8.204;2023-02-28T11:05:33;103231.56;;;22.17;22.99
48968;BME280;46511;53.148;8.204;2023-02-28T11:10:47;103229.22;;;26.29;18.43
48968;BME280;46511;53.148;8.204;2023-02-28T11:13:29;103214.66;;;27.23;17.40
48968;BME280;46511;53.148;8.204;2023-02-28T11:16:08;103224.84;;;25.06;18.47
48968;BME280;46511;53.148;8.204;2023-02-28T11:18:50;103226.03;;;24.91;19.13
48968;BME280;46511;53.148;8.204;2023-02-28T11:21:26;103224.50;;;27.04;17.22
48968;BME280;46511;53.148;8.204;2023-02-28T11:24:02;103223.75;;;26.61;16.77
48968;BME280;46511;53.148;8.204;2023-02-28T11:26:44;103221.47;;;27.78;16.35
48968;BME280;46511;53.148;8.204;2023-02-28T11:29:18;103224.69;;;23.42;18.97
48968;BME280;46511;53.148;8.204;2023-02-28T11:32:01;103229.53;;;23.49;19.69
48968;BME280;46511;53.148;8.204;2023-02-28T11:34:36;103237.19;;;22.53;20.21
48968;BME280;46511;53.148;8.204;2023-02-28T11:37:16;103226.97;;;24.32;19.39
48968;BME280;46511;53.148;8.204;2023-02-28T11:39:49;103223.19;;;22.99;20.51
48968;BME280;46511;53.148;8.204;2023-02-28T11:53:35;103220.59;;;24.44;18.52
48968;BME280;46511;53.148;8.204;2023-02-28T11:56:37;103212.19;;;28.29;15.65
48968;BME280;46511;53.148;8.204;2023-02-28T12:04:52;103204.31;;;22.98;19.67
48968;BME280;46511;53.148;8.204;2023-02-28T12:07:50;103192.44;;;26.23;17.15
48968;BME280;46511;53.148;8.204;2023-02-28T12:17:12;103186.59;;;26.90;15.87
48968;BME280;46511;53.148;8.204;2023-02-28T12:25:54;103184.00;;;17.05;25.31
48968;BME280;46511;53.148;8.204;2023-02-28T12:28:40;103171.09;;;20.78;23.24
48968;BME280;46511;53.148;8.204;2023-02-28T12:31:24;103161.25;;;22.03;20.88
48968;BME280;46511;53.148;8.204;2023-02-28T12:34:01;103157.00;;;23.27;19.70
48968;BME280;46511;53.148;8.204;2023-02-28T12:36:37;103155.19;;;23.52;19.71
48968;BME280;46511;53.148;8.204;2023-02-28T12:39:16;103153.09;;;23.92;19.29
48968;BME280;46511;53.148;8.204;2023-02-28T12:41:56;103150.06;;;22.34;21.01
48968;BME280;46511;53.148;8.204;2023-02-28T12:44:52;103140.19;;;21.39;22.09
48968;BME280;46511;53.148;8.204;2023-02-28T12:47:29;103144.66;;;18.83;24.64
48968;BME280;46511;53.148;8.204;2023-02-28T12:50:05;103133.19;;;21.64;21.53
48968;BME280;46511;53.148;8.204;2023-02-28T12:52:51;103142.53;;;21.31;22.21
48968;BME280;46511;53.148;8.204;2023-02-28T12:55:48;103149.41;;;20.06;22.47
48968;BME280;46511;53.148;8.204;2023-02-28T13:01:42;103129.03;;;20.89;21.86
48968;BME280;46511;53.148;8.204;2023-02-28T13:04:43;103140.63;;;19.56;22.94
48968;BME280;46511;53.148;8.204;2023-02-28T13:10:09;103128.53;;;22.71;20.61
48968;BME280;46511;53.148;8.204;2023-02-28T13:12:51;103112.47;;;25.71;18.12
48968;BME280;46511;53.148;8.204;2023-02-28T13:15:25;103118.47;;;23.72;19.39
48968;BME280;46511;53.148;8.204;2023-02-28T13:17:59;103115.31;;;25.15;18.05
48968;BME280;46511;53.148;8.204;2023-02-28T13:34:40;103121.78;;;20.89;21.26
48968;BME280;46511;53.148;8.204;2023-02-28T13:37:44;103118.34;;;18.38;23.62
48968;BME280;46511;53.148;8.204;2023-02-28T13:40:32;103127.28;;;17.86;24.79
48968;BME280;46511;53.148;8.204;2023-02-28T13:43:08;103117.66;;;19.95;22.47
48968;BME280;46511;53.148;8.204;2023-02-28T13:45:40;103119.38;;;18.70;23.56
48968;BME280;46511;53.148;8.204;2023-02-28T13:48:36;103091.94;;;21.33;21.80
48968;BME280;46511;53.148;8.204;2023-02-28T14:00:33;103115.13;;;22.04;19.58
48968;BME280;46511;53.148;8.204;2023-02-28T14:11:36;103101.66;;;17.96;23.27
48968;BME280;46511;53.148;8.204;2023-02-28T14:14:09;103100.09;;;20.18;22.48
48968;BME280;46511;53.148;8.204;2023-02-28T14:17:07;103095.38;;;20.21;21.90
48968;BME280;46511;53.148;8.204;2023-02-28T14:19:44;103088.09;;;18.50;22.96
48968;BME280;46511;53.148;8.204;2023-02-28T14:28:09;103090.00;;;16.26;25.99
48968;BME280;46511;53.148;8.204;2023-02-28T14:33:48;103089.13;;;18.65;24.09
48968;BME280;46511;53.148;8.204;2023-02-28T14:36:45;103097.59;;;18.90;23.89
48968;BME280;46511;53.148;8.204;2023-02-28T14:39:19;103086.13;;;18.53;24.24
48968;BME280;46511;53.148;8.204;2023-02-28T14:41:52;103098.50;;;16.96;26.07
48968;BME280;46511;53.148;8.204;2023-02-28T14:44:27;103098.38;;;16.60;27.25
48968;BME280;46511;53.148;8.204;2023-02-28T14:46:59;103101.25;;;16.75;26.15
48968;BME280;46511;53.148;8.204;2023-02-28T14:49:38;103098.28;;;15.80;27.46
48968;BME280;46511;53.148;8.204;2023-02-28T14:52:15;103110.50;;;15.87;27.86
48968;BME280;46511;53.148;8.204;2023-02-28T14:54:52;103106.47;;;16.58;28.03
48968;BME280;46511;53.148;8.204;2023-02-28T14:57:26;103111.03;;;16.97;26.86
48968;BME280;46511;53.148;8.204;2023-02-28T15:00:16;103117.22;;;15.97;27.52
48968;BME280;46511;53.148;8.204;2023-02-28T15:02:52;103118.63;;;15.63;28.29
48968;BME280;46511;53.148;8.204;2023-02-28T15:05:31;103118.84;;;15.57;28.61
48968;BME280;46511;53.148;8.204;2023-02-28T15:08:22;103123.47;;;15.08;29.43
48968;BME280;46511;53.148;8.204;2023-02-28T15:10:54;103122.31;;;15.59;28.67
48968;BME280;46511;53.148;8.204;2023-02-28T15:13:35;103119.22;;;15.25;29.61
48968;BME280;46511;53.148;8.204;2023-02-28T15:16:12;103120.25;;;15.44;29.13
48968;BME280;46511;53.148;8.204;2023-02-28T15:18:48;103122.78;;;15.25;29.95
48968;BME280;46511;53.148;8.204;2023-02-28T15:21:24;103119.34;;;14.51;30.64
48968;BME280;46511;53.148;8.204;2023-02-28T15:24:03;103116.75;;;14.73;30.77
48968;BME280;46511;53.148;8.204;2023-02-28T15:26:39;103118.47;;;12.22;33.18
48968;BME280;46511;53.148;8.204;2023-02-28T15:29:19;103117.47;;;12.88;33.43
48968;BME280;46511;53.148;8.204;2023-02-28T15:34:35;103112.50;;;13.37;32.66
48968;BME280;46511;53.148;8.204;2023-02-28T15:40:07;103119.66;;;12.09;35.35
48968;BME280;46511;53.148;8.204;2023-02-28T15:42:43;103110.94;;;11.67;37.09
48968;BME280;46511;53.148;8.204;2023-02-28T15:45:46;103108.97;;;11.38;37.25
48968;BME280;46511;53.148;8.204;2023-02-28T15:51:02;103118.25;;;10.30;39.94
48968;BME280;46511;53.148;8.204;2023-02-28T15:53:48;103121.13;;;11.09;40.20